Buckland, AK

2:41 AM AKDT on July 29, 2014 (GMT -0800)
Buckland (PABL) Elev 30 ft | 65.98 °N, 161.15 °W | Change Station

Current weather conditions updated 5 minutes ago

Clear
Clear
48 °F
Feels Like 48 °F
N
4
Wind Variable Wind from SE

Today is forecast to be nearly the same temperature as yesterday.

Today
High -- | Low -- °F
--% Chance of Precip.
Yesterday
High -- | Low -- °F
Precip. -- in
5:19 AM 0:19 AM
Waxing Crescent, 6% visible
Pressure 30.27 in
Visibility 10.0 miles
Clouds Clear
Dew Point 39 °F
Humidity 71%
Rainfall 0.00 in
Snow Depth Not available.
UV 0 out of 12
Pollen Not available.
Air Quality Not available.
Flu Activity Not available.
METAR PABL 291036Z AUTO 13003KT 10SM CLR 09/04 A3027 RMK AO1

More Conditions Fewer Conditions

Pressure 30.27 in
Visibility 10.0 miles
Clouds Clear
Dew Point 39 °F
Humidity 71%
Rainfall 0.00 in
Snow Depth Not available.
UV 0 out of 12
Pollen Not available.
Air Quality Not available.
Flu Activity Not available.
METAR PABL 291036Z AUTO 13003KT 10SM CLR 09/04 A3027 RMK AO1

More Conditions Fewer Conditions

10-Day Weather Forecast

Almanac

Astronomy

Jul. 29, 2014 Rise Set
Actual Time 5:19 AM AKDT 12:19 AM AKDT
Civil Twilight 3:23 AM AKDT 2:18 AM AKDT
Nautical Twilight Sun does not rise Sun does not rise
Astronomical Twilight Sun does not rise Sun does not rise
Moon 9:54 AM AKDT 11:39 PM AKDT
Length of Visible Light 22h 55m
Length of Day
18h 59m
Tomorrow will be 7m 53s shorter.
Waxing Crescent, 6% of the Moon is Illuminated
Today
Waxing Crescent
Aug 3
First Quarter
Aug 10
Full
Aug 17
Last Quarter
Aug 25
New

Today's Extremes

State Highs State Lows

Community

WunderPhotos

Upload Photos

1,738,683 photos uploaded!

Nearby

Snow Depth

Station Depth Elevation
Rocky Point 2 in 500 ft
Gobblers Knob 0 in 2030 ft
Coldfoot 0 in 1040 ft
Atigun Pass 0 in 4800 ft
Imnaviat Creek 0 in 3050 ft

Earthquake Activity

City Distance Mag. Time & Date
No recent earthquake activity has been reported nearby.
Minimum magnitude displayed is 2.5.

Coastal Water Temperatures

Place Temperature
No Stations Reporting

Nearby Weather Stations

Station Location Temp. Windchill Dew Point Humidity Wind Precip. Elev Updated Type
RAWS BUCKLAND UPLANDS AK, Buckland, AK 45 °F 41 °F 40 °F 82% WNW  at  7 mph 0.00 in / hr 399 ft 2:01 AM AKDT MADIS

Show More Stations Show Fewer Stations